createdAt,value
2022-11-15T00:01:59.524Z,100354.8
2022-11-15T00:04:03.998Z,100348.84
2022-11-15T00:06:08.346Z,100347.38
2022-11-15T00:08:12.900Z,100345.14
2022-11-15T00:10:17.380Z,100340.68
2022-11-15T00:12:21.762Z,100342.59
2022-11-15T00:14:26.169Z,100338.41
2022-11-15T00:16:30.551Z,100335.21
2022-11-15T00:18:35.082Z,100328.69
2022-11-15T00:20:39.493Z,100332.25
2022-11-15T00:22:43.846Z,100331.16
2022-11-15T00:24:48.210Z,100332.52
2022-11-15T00:26:52.608Z,100335.21
2022-11-15T00:28:56.980Z,100330.69
2022-11-15T00:31:01.314Z,100331.91
2022-11-15T00:33:05.699Z,100332.11
2022-11-15T00:35:10.078Z,100328.14
2022-11-15T00:37:14.441Z,100329.3
2022-11-15T00:39:18.770Z,100324.8
2022-11-15T00:41:23.175Z,100318.52
2022-11-15T00:43:27.547Z,100319.13
2022-11-15T00:45:32.512Z,100316.64
2022-11-15T00:47:36.918Z,100314.3
2022-11-15T00:49:41.310Z,100312.63
2022-11-15T00:51:45.644Z,100311.81
2022-11-15T00:53:50.076Z,100308.89
2022-11-15T00:55:54.444Z,100309.98
2022-11-15T00:57:58.836Z,100311.41
2022-11-15T01:00:03.207Z,100311.3
2022-11-15T01:02:07.551Z,100312.9
2022-11-15T01:04:11.939Z,100311.84
2022-11-15T01:06:16.392Z,100306.55
2022-11-15T01:08:20.777Z,100308.82
2022-11-15T01:10:25.125Z,100309.39
2022-11-15T01:12:29.488Z,100309.16
2022-11-15T01:14:33.899Z,100307.29
2022-11-15T01:16:38.290Z,100308.48
2022-11-15T01:18:42.641Z,100317.38
2022-11-15T01:20:46.992Z,100315.03
2022-11-15T01:22:51.327Z,100309.94
2022-11-15T01:24:55.716Z,100310.89
2022-11-15T01:27:00.085Z,100308.68
2022-11-15T01:29:04.651Z,100308.17
2022-11-15T01:31:09.055Z,100300.34
2022-11-15T01:33:13.409Z,100296.64
2022-11-15T01:35:17.796Z,100293.69
2022-11-15T01:37:22.150Z,100291.69
2022-11-15T01:39:26.508Z,100287.13
2022-11-15T01:41:30.861Z,100280.02
2022-11-15T01:43:35.671Z,100279.92
2022-11-15T01:45:40.049Z,100280.05
2022-11-15T01:47:44.399Z,100276.42
2022-11-15T01:49:48.845Z,100274.08
2022-11-15T01:51:53.214Z,100265.75
2022-11-15T01:53:57.549Z,100260.55
2022-11-15T01:56:01.967Z,100263.41
2022-11-15T01:58:06.371Z,100261.09
2022-11-15T02:00:10.740Z,100258.2
2022-11-15T02:02:15.115Z,100255.28
2022-11-15T02:04:19.480Z,100253
2022-11-15T02:06:23.847Z,100252.77
2022-11-15T02:08:28.243Z,100245.36
2022-11-15T02:10:32.616Z,100247.73
2022-11-15T02:12:36.981Z,100245.97
2022-11-15T02:14:41.332Z,100243.62
2022-11-15T02:16:45.705Z,100241
2022-11-15T02:18:50.065Z,100238.76
2022-11-15T02:20:54.479Z,100237.88
2022-11-15T02:22:58.967Z,100236.52
2022-11-15T02:25:03.339Z,100236.52
2022-11-15T02:27:07.718Z,100236.03
2022-11-15T02:29:12.082Z,100232.7
2022-11-15T02:31:16.460Z,100233.31
2022-11-15T02:33:20.795Z,100234.53
2022-11-15T02:35:25.181Z,100232.5
2022-11-15T02:37:29.572Z,100232.88
2022-11-15T02:39:33.928Z,100231.64
2022-11-15T02:41:38.412Z,100228.14
2022-11-15T02:43:42.851Z,100230.42
2022-11-15T02:45:47.197Z,100229.98
2022-11-15T02:47:51.539Z,100225.55
2022-11-15T02:49:55.927Z,100222.09
2022-11-15T02:52:00.373Z,100221.31
2022-11-15T02:54:04.768Z,100222.77
2022-11-15T02:56:09.108Z,100223.83
2022-11-15T02:58:13.455Z,100219.34
2022-11-15T03:00:17.822Z,100210.34
2022-11-15T03:02:22.167Z,100202.55
2022-11-15T03:04:26.522Z,100206.8
2022-11-15T03:06:30.872Z,100204.42
2022-11-15T03:08:35.239Z,100201.84
2022-11-15T03:10:39.628Z,100205.16
2022-11-15T03:12:44.007Z,100204.38
2022-11-15T03:14:48.422Z,100199.31
2022-11-15T03:16:52.782Z,100196.59
2022-11-15T03:18:57.170Z,100192.63
2022-11-15T03:21:01.711Z,100195.55
2022-11-15T03:23:06.085Z,100200.61
2022-11-15T03:25:10.499Z,100196.59
2022-11-15T03:27:14.910Z,100194.69
2022-11-15T03:29:19.314Z,100191.73
2022-11-15T03:31:23.706Z,100189.29
2022-11-15T03:33:28.225Z,100192.78
2022-11-15T03:35:33.272Z,100188
2022-11-15T03:37:37.592Z,100182.42
2022-11-15T03:39:41.966Z,100179.98
2022-11-15T03:41:46.323Z,100179.37
2022-11-15T03:43:50.657Z,100174.31
2022-11-15T03:45:55.019Z,100172.14
2022-11-15T03:47:59.380Z,100170.3
2022-11-15T03:50:03.721Z,100169.21
2022-11-15T03:52:08.094Z,100168.88
2022-11-15T03:54:12.470Z,100170.7
2022-11-15T03:56:16.832Z,100174.09
2022-11-15T03:58:21.200Z,100179.29
2022-11-15T04:00:25.555Z,100176.27
2022-11-15T04:02:29.991Z,100176.84
2022-11-15T04:04:34.332Z,100174.39
2022-11-15T04:06:38.801Z,100172.09
2022-11-15T04:08:43.241Z,100172.42
2022-11-15T04:10:47.806Z,100175.81
2022-11-15T04:12:52.226Z,100174.28
2022-11-15T04:14:56.610Z,100171.88
2022-11-15T04:17:00.978Z,100172.08
2022-11-15T04:19:05.360Z,100170.55
2022-11-15T04:21:09.739Z,100174.89
2022-11-15T04:23:14.146Z,100174.38
2022-11-15T04:25:27.274Z,100175.7
2022-11-15T04:27:36.058Z,100176.24
2022-11-15T04:29:40.443Z,100169.18
2022-11-15T04:31:44.801Z,100167.55
2022-11-15T04:33:49.164Z,100158.25
2022-11-15T04:35:53.513Z,100156.71
2022-11-15T04:37:57.868Z,100147.14
2022-11-15T04:40:02.220Z,100145.13
2022-11-15T04:42:06.628Z,100145.53
2022-11-15T04:44:11.028Z,100148.69
2022-11-15T04:46:15.374Z,100152.45
2022-11-15T04:48:19.746Z,100148.27
2022-11-15T04:50:24.074Z,100150.55
2022-11-15T04:52:28.430Z,100158.72
2022-11-15T04:54:32.823Z,100164.45
2022-11-15T04:56:37.161Z,100161.88
2022-11-15T04:58:41.595Z,100160.61
2022-11-15T05:00:46.141Z,100159.02
2022-11-15T05:02:50.620Z,100163.87
2022-11-15T05:04:54.964Z,100158.13
2022-11-15T05:06:59.495Z,100151.81
2022-11-15T05:09:04.027Z,100153.67
2022-11-15T05:11:08.389Z,100146.65
2022-11-15T05:13:12.780Z,100148.1
2022-11-15T05:15:17.121Z,100142.38
2022-11-15T05:17:21.510Z,100142.91
2022-11-15T05:19:25.904Z,100142.13
2022-11-15T05:21:30.269Z,100141.61
2022-11-15T05:23:35.306Z,100136.55
2022-11-15T05:25:39.665Z,100139.53
2022-11-15T05:27:44.053Z,100143.03
2022-11-15T05:29:48.434Z,100140.11
2022-11-15T05:31:52.767Z,100140.08
2022-11-15T05:33:57.134Z,100140.68
2022-11-15T05:36:01.618Z,100136.41
2022-11-15T05:38:06.183Z,100136.74
2022-11-15T05:40:10.720Z,100133.17
2022-11-15T05:42:15.092Z,100125.17
2022-11-15T05:44:19.439Z,100120.89
2022-11-15T05:46:23.853Z,100120.72
2022-11-15T05:48:28.199Z,100121.94
2022-11-15T05:50:32.590Z,100120.09
2022-11-15T05:52:36.951Z,100120.09
2022-11-15T05:54:41.403Z,100115.21
2022-11-15T05:56:45.791Z,100121.31
2022-11-15T05:58:50.175Z,100121.93
2022-11-15T06:00:59.005Z,100131.25
2022-11-15T06:03:03.351Z,100128.55
2022-11-15T06:05:07.725Z,100128.98
2022-11-15T06:07:12.216Z,100127.02
2022-11-15T06:09:16.689Z,100121.96
2022-11-15T06:11:21.076Z,100120.06
2022-11-15T06:13:25.434Z,100112.2
2022-11-15T06:15:29.852Z,100112.39
2022-11-15T06:17:34.252Z,100111.77
2022-11-15T06:19:38.607Z,100115.77
2022-11-15T06:21:43.007Z,100113.23
2022-11-15T06:23:47.369Z,100116.52
2022-11-15T06:25:51.738Z,100115.53
2022-11-15T06:27:56.098Z,100116.46
2022-11-15T06:30:00.471Z,100116.5
2022-11-15T06:32:04.882Z,100118.84
2022-11-15T06:34:09.237Z,100123.43
2022-11-15T06:36:18.481Z,100119.25
2022-11-15T06:38:22.866Z,100123.11
2022-11-15T06:40:27.238Z,100121.58
2022-11-15T06:42:31.625Z,100126.93
2022-11-15T06:44:35.959Z,100131.71
2022-11-15T06:46:40.414Z,100137.95
2022-11-15T06:48:44.788Z,100143.86
2022-11-15T06:50:49.182Z,100141.05
2022-11-15T06:52:53.562Z,100135.61
2022-11-15T06:54:57.923Z,100132.17
2022-11-15T06:57:02.305Z,100133.59
2022-11-15T06:59:06.720Z,100136.27
2022-11-15T07:01:11.250Z,100135
2022-11-15T07:03:15.714Z,100136.29
2022-11-15T07:05:20.024Z,100138.56
2022-11-15T07:07:24.572Z,100142.88
2022-11-15T07:09:29.143Z,100142.42
2022-11-15T07:11:33.556Z,100142.28
2022-11-15T07:13:38.086Z,100142.48
2022-11-15T07:15:42.427Z,100142.14
2022-11-15T07:17:46.839Z,100140.51
2022-11-15T07:19:51.256Z,100146.08
2022-11-15T07:21:55.651Z,100141.45
2022-11-15T07:24:00.049Z,100146.31
2022-11-15T07:26:04.585Z,100141.58
2022-11-15T07:28:09.634Z,100136.47
2022-11-15T07:30:16.683Z,100140.92
2022-11-15T07:32:21.069Z,100156.23
2022-11-15T07:34:25.412Z,100138.27
2022-11-15T07:36:29.788Z,100133.44
2022-11-15T07:38:42.363Z,100138.27
2022-11-15T07:40:47.018Z,100134.44
2022-11-15T07:42:51.480Z,100135.56
2022-11-15T07:44:55.838Z,100133.02
2022-11-15T07:47:00.330Z,100130.91
2022-11-15T07:49:04.795Z,100131.28
2022-11-15T07:51:14.984Z,100130.94
2022-11-15T07:53:19.349Z,100124.89
2022-11-15T07:55:23.643Z,100125.26
2022-11-15T07:57:28.034Z,100124.46
2022-11-15T07:59:32.423Z,100124.56
2022-11-15T08:01:37.143Z,100126.66
2022-11-15T08:03:41.691Z,100126.83
2022-11-15T08:05:46.219Z,100121.55
2022-11-15T08:07:53.617Z,100117.43
2022-11-15T08:09:58.006Z,100118.25
2022-11-15T08:12:02.379Z,100115.8
2022-11-15T08:14:06.805Z,100117.9
2022-11-15T08:16:11.211Z,100121.67
2022-11-15T08:18:15.665Z,100117.63
2022-11-15T08:20:20.092Z,100112.05
2022-11-15T08:22:24.467Z,100108.5
2022-11-15T08:24:28.857Z,100102.72
2022-11-15T08:26:33.239Z,100104.14
2022-11-15T08:28:37.654Z,100103.62
2022-11-15T08:30:42.048Z,100104.02
2022-11-15T08:32:46.650Z,100104.09
2022-11-15T08:34:51.011Z,100102.15
2022-11-15T08:36:55.409Z,100103.67
2022-11-15T08:38:59.803Z,100102.45
2022-11-15T08:41:04.178Z,100100.95
2022-11-15T08:43:08.542Z,100099.67
2022-11-15T08:45:12.886Z,100098.72
2022-11-15T08:47:17.275Z,100093.71
2022-11-15T08:49:21.670Z,100093.67
2022-11-15T08:51:26.032Z,100089.52
2022-11-15T08:53:30.421Z,100085.47
2022-11-15T08:55:34.798Z,100086.07
2022-11-15T08:57:39.275Z,100087.02
2022-11-15T08:59:43.632Z,100088.17
2022-11-15T09:01:48.292Z,100089.98
2022-11-15T09:03:52.857Z,100094.36
2022-11-15T09:05:57.205Z,100089.46
2022-11-15T09:08:13.832Z,100094.69
2022-11-15T09:10:49.395Z,100091.64
2022-11-15T09:12:53.821Z,100089.59
2022-11-15T09:14:58.225Z,100088.55
2022-11-15T09:17:02.965Z,100093.64
2022-11-15T09:19:12.711Z,100097.38
2022-11-15T09:21:17.108Z,100099.06
2022-11-15T09:23:21.498Z,100093.17
2022-11-15T09:25:25.904Z,100092.69
2022-11-15T09:27:30.273Z,100093.94
2022-11-15T09:29:34.694Z,100088.74
2022-11-15T09:31:39.088Z,100085.36
2022-11-15T09:33:43.470Z,100084.28
2022-11-15T09:35:47.958Z,100085.4
2022-11-15T09:37:57.294Z,100082.45
2022-11-15T09:40:01.661Z,100083.43
2022-11-15T09:42:06.004Z,100080.45
2022-11-15T09:44:10.409Z,100074.69
2022-11-15T09:46:14.855Z,100074.84
2022-11-15T09:48:19.288Z,100069.79
2022-11-15T09:50:23.663Z,100067.91
2022-11-15T09:52:28.066Z,100066.2
2022-11-15T09:54:55.958Z,100065.16
2022-11-15T09:57:00.628Z,100061.95
2022-11-15T09:59:04.985Z,100057.64
2022-11-15T10:01:09.562Z,100049.23
2022-11-15T10:03:14.083Z,100048.42
2022-11-15T10:05:18.536Z,100041.5
2022-11-15T10:07:23.360Z,100044
2022-11-15T10:09:27.885Z,100039.13
2022-11-15T10:11:40.798Z,100033.59
2022-11-15T10:13:45.165Z,100031.76
2022-11-15T10:15:49.592Z,100035.35
2022-11-15T10:17:54.101Z,100029.11
2022-11-15T10:20:05.843Z,100027.02
2022-11-15T10:22:10.414Z,100021.79
2022-11-15T10:24:14.774Z,100020.45
2022-11-15T10:26:19.159Z,100014.91
2022-11-15T10:28:23.564Z,100013.66
2022-11-15T10:30:27.936Z,100015.59
2022-11-15T10:32:32.337Z,100008.55
2022-11-15T10:34:36.856Z,100010.34
2022-11-15T10:36:50.068Z,100008.83
2022-11-15T10:38:54.694Z,100004.83
2022-11-15T10:40:59.056Z,100000.8
2022-11-15T10:43:03.549Z,99999.59
2022-11-15T10:45:07.846Z,99994.73
2022-11-15T10:47:12.195Z,99992.4
2022-11-15T10:49:16.497Z,99989.08
2022-11-15T10:51:20.853Z,99983.47
2022-11-15T10:53:25.181Z,99977.12
2022-11-15T10:55:29.442Z,99972.32
2022-11-15T10:57:33.727Z,99967.92
2022-11-15T10:59:40.310Z,99971.52
2022-11-15T11:01:44.670Z,99972.58
2022-11-15T11:03:49.144Z,99974.39
2022-11-15T11:05:53.479Z,99970.84
2022-11-15T11:07:57.998Z,99974.02
2022-11-15T11:10:02.554Z,99973.72
2022-11-15T11:12:08.380Z,99972.7
2022-11-15T11:14:12.736Z,99974.64
2022-11-15T11:16:17.057Z,99969.66
2022-11-15T11:18:21.381Z,99967.5
2022-11-15T11:20:25.776Z,99961.91
2022-11-15T11:22:30.157Z,99961.1
2022-11-15T11:24:34.502Z,99958.84
2022-11-15T11:26:38.838Z,99957.94
2022-11-15T11:28:43.163Z,99959.66
2022-11-15T11:30:47.525Z,99958.36
2022-11-15T11:32:56.028Z,99952.78
2022-11-15T11:35:00.403Z,99952.52
2022-11-15T11:37:04.756Z,99950.88
2022-11-15T11:39:09.075Z,99946.86
2022-11-15T11:41:13.395Z,99945.5
2022-11-15T11:43:17.752Z,99941.59
2022-11-15T11:45:22.076Z,99940.28
2022-11-15T11:47:26.436Z,99935.3
2022-11-15T11:49:30.780Z,99935.3
2022-11-15T11:51:35.137Z,99937.02
2022-11-15T11:53:39.444Z,99933.28
2022-11-15T11:55:43.759Z,99929.14
2022-11-15T11:57:48.107Z,99926.73
2022-11-15T11:59:52.457Z,99923.85
2022-11-15T12:01:57.086Z,99925.97
2022-11-15T12:04:01.639Z,99923.53
2022-11-15T12:06:06.011Z,99921.56
2022-11-15T12:08:10.379Z,99924.24
2022-11-15T12:10:14.684Z,99920.08
2022-11-15T12:12:19.041Z,99916.07
2022-11-15T12:14:23.378Z,99912.52
2022-11-15T12:16:27.747Z,99906.34
2022-11-15T12:18:32.785Z,99905.23
2022-11-15T12:20:37.984Z,99896.02
2022-11-15T12:22:42.335Z,99894.04
2022-11-15T12:24:46.675Z,99895.72
2022-11-15T12:26:51.045Z,99894.5
2022-11-15T12:29:09.068Z,99885.94
2022-11-15T12:31:13.559Z,99883.98
2022-11-15T12:33:17.921Z,99878.09
2022-11-15T12:35:22.246Z,99874.77
2022-11-15T12:37:26.686Z,99876.66
2022-11-15T12:39:31.070Z,99874.02
2022-11-15T12:41:35.695Z,99872.88
2022-11-15T12:43:40.027Z,99871.84
2022-11-15T12:45:44.383Z,99871.2
2022-11-15T12:47:48.748Z,99866.06
2022-11-15T12:49:53.139Z,99868.69
2022-11-15T12:51:57.570Z,99866.71
2022-11-15T12:54:01.953Z,99866.05
2022-11-15T12:56:06.343Z,99863.84
2022-11-15T12:58:10.722Z,99856.58
2022-11-15T13:00:15.091Z,99859.97
2022-11-15T13:02:19.473Z,99851.25
2022-11-15T13:04:23.849Z,99848.78
2022-11-15T13:06:28.193Z,99847.29
2022-11-15T13:08:33.321Z,99844.73
2022-11-15T13:10:37.741Z,99841.52
2022-11-15T13:12:42.103Z,99839.72
2022-11-15T13:14:46.472Z,99840.95
2022-11-15T13:16:50.786Z,99838.17
2022-11-15T13:18:55.213Z,99834.39
2022-11-15T13:21:03.806Z,99837.98
2022-11-15T13:23:08.144Z,99838.72
2022-11-15T13:25:12.460Z,99838.06
2022-11-15T13:27:16.811Z,99838.08
2022-11-15T13:29:21.178Z,99841.06
2022-11-15T13:31:25.605Z,99841.41
2022-11-15T13:33:36.747Z,99837.33
2022-11-15T13:35:41.200Z,99832.48
2022-11-15T13:37:45.506Z,99833.23
2022-11-15T13:39:49.878Z,99835.79
2022-11-15T13:41:54.384Z,99837.58
2022-11-15T13:43:58.636Z,99830.95
2022-11-15T13:46:02.929Z,99824.85
2022-11-15T13:48:07.291Z,99822.9
2022-11-15T13:50:13.627Z,99823.2
2022-11-15T13:52:18.057Z,99825.69
2022-11-15T13:54:22.555Z,99823.43
2022-11-15T13:56:26.939Z,99820.86
2022-11-15T13:58:31.341Z,99825.73
2022-11-15T14:00:36.287Z,99820.34
2022-11-15T14:02:40.603Z,99817.9
2022-11-15T14:04:44.944Z,99817.24
2022-11-15T14:06:49.471Z,99819.44
2022-11-15T14:08:53.984Z,99816.63
2022-11-15T14:10:58.340Z,99814.01
2022-11-15T14:13:02.642Z,99818.09
2022-11-15T14:15:06.979Z,99812.52
2022-11-15T14:17:11.320Z,99808.34
2022-11-15T14:19:15.715Z,99801.86
2022-11-15T14:21:20.159Z,99798.56
2022-11-15T14:23:24.548Z,99791.2
2022-11-15T14:25:28.917Z,99789.84
2022-11-15T14:27:33.297Z,99786.38
2022-11-15T14:29:37.705Z,99788.93
2022-11-15T14:31:44.924Z,99787.7
2022-11-15T14:33:49.324Z,99787.66
2022-11-15T14:35:53.936Z,99787.63
2022-11-15T14:37:58.251Z,99783.37
2022-11-15T14:40:02.593Z,99783.23
2022-11-15T14:42:06.911Z,99776.84
2022-11-15T14:44:11.210Z,99776.09
2022-11-15T14:46:15.529Z,99772.82
2022-11-15T14:48:19.868Z,99763.48
2022-11-15T14:50:24.199Z,99768
2022-11-15T14:52:33.495Z,99762.38
2022-11-15T14:54:37.805Z,99762.2
2022-11-15T14:56:42.218Z,99764.3
2022-11-15T14:58:46.503Z,99760.42
2022-11-15T15:00:50.917Z,99756.76
2022-11-15T15:02:55.270Z,99759.09
2022-11-15T15:04:59.592Z,99757.02
2022-11-15T15:07:04.238Z,99755.37
2022-11-15T15:09:08.693Z,99752.36
2022-11-15T15:11:13.063Z,99752.47
2022-11-15T15:13:17.391Z,99751.83
2022-11-15T15:15:21.708Z,99753.05
2022-11-15T15:17:26.323Z,99751.7
2022-11-15T15:19:30.780Z,99758.16
2022-11-15T15:21:38.645Z,99754.59
2022-11-15T15:23:43.147Z,99753.78
2022-11-15T15:25:47.710Z,99757.09
2022-11-15T15:27:52.089Z,99756.09
2022-11-15T15:29:56.560Z,99749
2022-11-15T15:32:00.870Z,99751.69
2022-11-15T15:34:05.233Z,99746.3
2022-11-15T15:36:09.579Z,99748
2022-11-15T15:38:13.969Z,99745.27
2022-11-15T15:40:18.272Z,99747.52
2022-11-15T15:42:22.614Z,99744.11
2022-11-15T15:44:26.918Z,99745.88
2022-11-15T15:46:31.254Z,99742.98
2022-11-15T15:48:36.310Z,99734.05
2022-11-15T15:50:40.653Z,99730.64
2022-11-15T15:52:44.993Z,99726.99
2022-11-15T15:54:49.296Z,99729.72
2022-11-15T15:56:57.356Z,99725.93
2022-11-15T15:59:01.701Z,99720.75
2022-11-15T16:01:06.350Z,99715.64
2022-11-15T16:03:10.838Z,99714.91
2022-11-15T16:05:15.157Z,99715.68
2022-11-15T16:07:19.767Z,99712.1
2022-11-15T16:09:25.180Z,99716.27
2022-11-15T16:11:29.504Z,99716.91
2022-11-15T16:13:33.860Z,99725.32
2022-11-15T16:15:38.180Z,99725.55
2022-11-15T16:17:42.492Z,99733.3
2022-11-15T16:19:46.852Z,99738.3
2022-11-15T16:21:51.154Z,99743.05
2022-11-15T16:23:56.050Z,99744.23
2022-11-15T16:26:00.384Z,99747.94
2022-11-15T16:28:04.738Z,99742.88
2022-11-15T16:30:09.126Z,99743.88
2022-11-15T16:32:13.931Z,99739.86
2022-11-15T16:34:18.444Z,99739.3
2022-11-15T16:36:30.627Z,99740.67
2022-11-15T16:38:36.361Z,99738.13
2022-11-15T16:40:41.102Z,99745.37
2022-11-15T16:42:45.454Z,99742.62
2022-11-15T16:44:49.824Z,99736.22
2022-11-15T16:46:54.149Z,99734.16
2022-11-15T16:48:58.488Z,99728.94
2022-11-15T16:51:02.867Z,99723.2
2022-11-15T16:53:07.250Z,99724.56
2022-11-15T16:55:11.552Z,99725.55
2022-11-15T16:57:15.921Z,99723.95
2022-11-15T16:59:20.286Z,99723.5
2022-11-15T17:01:24.877Z,99715.77
2022-11-15T17:03:29.506Z,99713.51
2022-11-15T17:05:33.833Z,99710.46
2022-11-15T17:07:38.543Z,99710.2
2022-11-15T17:09:42.989Z,99713.11
2022-11-15T17:11:47.293Z,99714.34
2022-11-15T17:13:51.633Z,99712
2022-11-15T17:15:55.996Z,99709.33
2022-11-15T17:18:00.333Z,99709.97
2022-11-15T17:20:04.779Z,99708.22
2022-11-15T17:22:09.108Z,99710.91
2022-11-15T17:24:13.458Z,99709.82
2022-11-15T17:26:34.099Z,99708.71
2022-11-15T17:28:44.307Z,99716.89
2022-11-15T17:30:48.626Z,99714.23
2022-11-15T17:32:52.955Z,99720.77
2022-11-15T17:34:57.324Z,99714.81
2022-11-15T17:37:01.621Z,99713.19
2022-11-15T17:39:05.986Z,99710.8
2022-11-15T17:41:10.330Z,99711.53
2022-11-15T17:43:14.639Z,99705.44
2022-11-15T17:45:18.975Z,99703.22
2022-11-15T17:47:23.339Z,99706.22
2022-11-15T17:49:27.837Z,99704.66
2022-11-15T17:51:32.171Z,99703.64
2022-11-15T17:53:36.502Z,99700.77
2022-11-15T17:55:40.841Z,99696.68
2022-11-15T17:57:45.193Z,99700.81
2022-11-15T17:59:49.529Z,99697.77
2022-11-15T18:01:53.955Z,99691.98
2022-11-15T18:03:58.298Z,99687.7
2022-11-15T18:06:02.630Z,99687.48
2022-11-15T18:08:09.207Z,99686.77
2022-11-15T18:10:18.980Z,99690.36
2022-11-15T18:12:23.354Z,99689.31
2022-11-15T18:14:27.711Z,99690.08
2022-11-15T18:16:32.036Z,99687.52
2022-11-15T18:18:37.068Z,99685.7
2022-11-15T18:20:41.492Z,99685.89
2022-11-15T18:22:45.822Z,99686.45
2022-11-15T18:24:50.172Z,99684.88
2022-11-15T18:26:54.536Z,99679.49
2022-11-15T18:28:58.875Z,99678.55
2022-11-15T18:31:03.600Z,99676.46
2022-11-15T18:33:07.947Z,99674.23
2022-11-15T18:35:12.454Z,99670.47
2022-11-15T18:37:16.930Z,99668.61
2022-11-15T18:39:21.320Z,99668.45
2022-11-15T18:41:25.683Z,99668.52
2022-11-15T18:43:30.333Z,99669.56
2022-11-15T18:45:35.157Z,99676.84
2022-11-15T18:47:39.591Z,99675.14
2022-11-15T18:49:43.924Z,99680.07
2022-11-15T18:51:48.316Z,99681.39
2022-11-15T18:53:52.634Z,99677.24
2022-11-15T18:55:56.983Z,99679
2022-11-15T18:58:01.303Z,99684.16
2022-11-15T19:00:05.918Z,99688.81
2022-11-15T19:02:10.263Z,99685.19
2022-11-15T19:04:14.580Z,99686.55
2022-11-15T19:06:18.957Z,99684.25
2022-11-15T19:08:23.744Z,99686.53
2022-11-15T19:10:28.115Z,99683.25
2022-11-15T19:12:32.483Z,99679.72
2022-11-15T19:14:36.893Z,99677.23
2022-11-15T19:16:41.326Z,99672.45
2022-11-15T19:18:45.658Z,99672.16
2022-11-15T19:20:50.041Z,99670.77
2022-11-15T19:22:54.385Z,99673.38
2022-11-15T19:24:58.737Z,99673.83
2022-11-15T19:27:03.130Z,99674.84
2022-11-15T19:29:07.481Z,99673.23
2022-11-15T19:31:11.931Z,99672.16
2022-11-15T19:33:16.295Z,99665.9
2022-11-15T19:35:20.684Z,99662.02
2022-11-15T19:37:25.067Z,99658.31
2022-11-15T19:39:29.412Z,99654.07
2022-11-15T19:41:33.720Z,99651.98
2022-11-15T19:43:38.076Z,99645.97
2022-11-15T19:45:42.418Z,99646.5
2022-11-15T19:47:46.759Z,99638.88
2022-11-15T19:49:51.116Z,99641.84
2022-11-15T19:51:55.447Z,99636.02
2022-11-15T19:53:59.834Z,99631.3
2022-11-15T19:56:04.234Z,99626.51
2022-11-15T19:58:08.668Z,99619.64
2022-11-15T20:00:13.135Z,99617.93
2022-11-15T20:02:17.473Z,99613.55
2022-11-15T20:04:21.822Z,99612.73
2022-11-15T20:06:26.184Z,99618.2
2022-11-15T20:08:30.855Z,99615.55
2022-11-15T20:10:35.938Z,99619.88
2022-11-15T20:12:40.316Z,99622.02
2022-11-15T20:14:44.912Z,99620.38
2022-11-15T20:16:55.129Z,99625.27
2022-11-15T20:18:59.515Z,99628.95
2022-11-15T20:21:03.867Z,99627.77
2022-11-15T20:23:08.247Z,99630.92
2022-11-15T20:25:12.581Z,99633.41
2022-11-15T20:27:16.947Z,99628.23
2022-11-15T20:29:21.419Z,99626.94
2022-11-15T20:31:25.786Z,99617.41
2022-11-15T20:33:30.156Z,99618.31
2022-11-15T20:35:34.572Z,99621.38
2022-11-15T20:37:38.928Z,99621.69
2022-11-15T20:39:43.287Z,99619.08
2022-11-15T20:41:47.640Z,99616.75
2022-11-15T20:43:52.021Z,99612.89
2022-11-15T20:45:56.342Z,99606.19
2022-11-15T20:48:00.660Z,99604.12
2022-11-15T20:50:42.405Z,99599.05
2022-11-15T20:52:47.490Z,99596.53
2022-11-15T20:54:51.865Z,99590.91
2022-11-15T20:56:56.232Z,99594.98
2022-11-15T20:59:00.654Z,99601.49
2022-11-15T21:01:05.388Z,99606.08
2022-11-15T21:03:10.022Z,99603.84
2022-11-15T21:05:14.458Z,99602.16
2022-11-15T21:07:19.000Z,99598.95
2022-11-15T21:09:23.507Z,99600.14
2022-11-15T21:11:27.886Z,99601.02
2022-11-15T21:13:32.196Z,99600.84
2022-11-15T21:15:36.560Z,99596.95
2022-11-15T21:17:40.898Z,99592.72
2022-11-15T21:19:45.268Z,99590.06
2022-11-15T21:21:49.657Z,99585.42
2022-11-15T21:23:54.000Z,99584.13
2022-11-15T21:25:58.403Z,99582.7
2022-11-15T21:28:02.715Z,99581.2
2022-11-15T21:30:07.204Z,99577.12
2022-11-15T21:32:11.589Z,99571.23
2022-11-15T21:34:16.184Z,99566
2022-11-15T21:36:20.505Z,99562.16
2022-11-15T21:38:24.816Z,99557.23
2022-11-15T21:40:29.205Z,99555.62
2022-11-15T21:42:33.532Z,99552.53
2022-11-15T21:44:37.835Z,99554.51
2022-11-15T21:46:42.160Z,99547.73
2022-11-15T21:48:46.494Z,99550.13
2022-11-15T21:50:50.833Z,99558.19
2022-11-15T21:52:55.150Z,99558.98
2022-11-15T21:54:59.463Z,99554.59
2022-11-15T21:57:04.101Z,99550.45
2022-11-15T21:59:08.454Z,99545.95
2022-11-15T22:01:12.933Z,99541.91
2022-11-15T22:03:17.503Z,99534.47
2022-11-15T22:05:21.891Z,99533.28
2022-11-15T22:07:26.537Z,99531.05
2022-11-15T22:09:31.153Z,99529.91
2022-11-15T22:11:35.671Z,99529.6
2022-11-15T22:13:40.145Z,99530.96
2022-11-15T22:15:44.836Z,99536.95
2022-11-15T22:17:49.276Z,99541.89
2022-11-15T22:19:54.204Z,99544.97
2022-11-15T22:21:58.677Z,99543.55
2022-11-15T22:24:03.448Z,99537.57
2022-11-15T22:26:07.881Z,99537.38
2022-11-15T22:28:12.384Z,99533.14
2022-11-15T22:30:16.834Z,99524.92
2022-11-15T22:32:21.309Z,99524.37
2022-11-15T22:34:25.746Z,99523.86
2022-11-15T22:37:05.709Z,99532.55
2022-11-15T22:39:24.412Z,99532.21
2022-11-15T22:41:28.950Z,99530.91
2022-11-15T22:43:33.378Z,99531.64
2022-11-15T22:45:37.834Z,99528.27
2022-11-15T22:47:42.311Z,99527.14
2022-11-15T22:49:46.770Z,99525.22
2022-11-15T22:51:51.183Z,99521.45
2022-11-15T22:53:55.581Z,99517.36
2022-11-15T22:56:00.051Z,99515.17
2022-11-15T22:58:04.506Z,99506.12
2022-11-15T23:00:08.965Z,99499.72
2022-11-15T23:02:13.409Z,99501.08
2022-11-15T23:04:17.955Z,99503.17
2022-11-15T23:06:22.426Z,99503.81
2022-11-15T23:08:26.860Z,99502.14
2022-11-15T23:10:31.282Z,99508.81
2022-11-15T23:12:35.857Z,99510.73
2022-11-15T23:14:40.377Z,99507.69
2022-11-15T23:16:44.826Z,99505.34
2022-11-15T23:18:49.246Z,99503.95
2022-11-15T23:20:53.680Z,99498.65
2022-11-15T23:22:58.092Z,99496.47
2022-11-15T23:25:02.529Z,99500.03
2022-11-15T23:27:06.992Z,99500.53
2022-11-15T23:29:11.425Z,99500.85
2022-11-15T23:31:15.810Z,99498.84
2022-11-15T23:33:20.299Z,99498.33
2022-11-15T23:35:24.712Z,99498.48
2022-11-15T23:37:29.198Z,99503.85
2022-11-15T23:39:33.655Z,99500.81
2022-11-15T23:41:38.081Z,99501.4
2022-11-15T23:43:42.548Z,99500.59
2022-11-15T23:45:46.985Z,99496.89
2022-11-15T23:47:52.321Z,99495.23
2022-11-15T23:50:04.547Z,99495.27
2022-11-15T23:52:08.962Z,99490.52
2022-11-15T23:54:13.423Z,99491.22
2022-11-15T23:56:17.906Z,99488.41
2022-11-15T23:58:22.338Z,99484.42
